createdAt,value
2023-10-06T00:03:35.536Z,94259.38
2023-10-06T00:08:42.373Z,94288.53
2023-10-06T00:14:02.115Z,94284.97
2023-10-06T00:19:21.379Z,94287.72
2023-10-06T00:24:27.429Z,94220.41
2023-10-06T00:29:31.829Z,94257.38
2023-10-06T00:34:36.336Z,94233.69
2023-10-06T00:39:40.068Z,94257.41
2023-10-06T00:44:46.684Z,94242.84
2023-10-06T00:49:50.132Z,94251.50
2023-10-06T00:54:53.419Z,94239.63
2023-10-06T00:59:58.769Z,94258.53
2023-10-06T01:05:09.767Z,94253.00
2023-10-06T01:10:19.140Z,94257.31
2023-10-06T01:15:22.576Z,94195.84
2023-10-06T01:20:42.586Z,94247.44
2023-10-06T01:25:46.449Z,94192.28
2023-10-06T01:30:50.654Z,94243.50
2023-10-06T01:35:53.824Z,94225.03
2023-10-06T01:40:57.688Z,94194.72
2023-10-06T01:46:01.192Z,94229.47
2023-10-06T01:51:09.905Z,94185.81
2023-10-06T01:56:15.427Z,94229.94
2023-10-06T02:01:22.318Z,94210.25
2023-10-06T02:06:27.695Z,94218.88
2023-10-06T02:11:32.314Z,94220.03
2023-10-06T02:16:36.852Z,94225.16
2023-10-06T02:21:53.592Z,94229.47
2023-10-06T02:27:01.718Z,94182.97
2023-10-06T02:32:09.329Z,94191.63
2023-10-06T02:37:13.771Z,94232.13
2023-10-06T02:42:20.855Z,94241.88
2023-10-06T02:47:28.629Z,94199.66
2023-10-06T02:52:38.922Z,94209.09
2023-10-06T02:57:52.595Z,94198.84
2023-10-06T03:03:05.074Z,94213.72
2023-10-06T03:08:11.620Z,94213.78
2023-10-06T03:13:33.502Z,94237.38
2023-10-06T03:18:38.565Z,94211.84
2023-10-06T03:23:46.797Z,94216.13
2023-10-06T03:28:54.448Z,94236.22
2023-10-06T03:33:59.071Z,94232.34
2023-10-06T03:39:09.204Z,94215.34
2023-10-06T03:44:13.863Z,94231.03
2023-10-06T03:49:17.416Z,94191.66
2023-10-06T03:54:20.628Z,94234.53
2023-10-06T03:59:24.970Z,94231.75
2023-10-06T04:04:28.214Z,94234.03
2023-10-06T04:09:32.789Z,94194.69
2023-10-06T04:14:37.148Z,94213.53
2023-10-06T04:19:40.240Z,94220.16
2023-10-06T04:24:43.655Z,94230.81
2023-10-06T04:29:46.737Z,94237.81
2023-10-06T04:34:49.924Z,94229.56
2023-10-06T04:39:53.299Z,94224.81
2023-10-06T04:44:57.004Z,94243.19
2023-10-06T04:50:00.220Z,94242.47
2023-10-06T04:55:05.074Z,94230.16
2023-10-06T05:00:14.773Z,94241.13
2023-10-06T05:05:27.332Z,94250.59
2023-10-06T05:10:31.852Z,94243.50
2023-10-06T05:15:38.785Z,94182.91
2023-10-06T05:20:43.838Z,94249.59
2023-10-06T05:25:47.505Z,94235.97
2023-10-06T05:30:52.333Z,94248.66
2023-10-06T05:35:55.729Z,94230.22
2023-10-06T05:41:03.297Z,94282.34
2023-10-06T05:46:07.178Z,94245.94
2023-10-06T05:51:11.714Z,94266.13
2023-10-06T05:56:21.349Z,94271.72
2023-10-06T06:01:30.435Z,94264.72
2023-10-06T06:06:37.593Z,94279.34
2023-10-06T06:11:40.787Z,94288.81
2023-10-06T06:16:46.266Z,94247.56
2023-10-06T06:21:50.726Z,94263.28
2023-10-06T06:26:54.670Z,94284.88
2023-10-06T06:31:58.337Z,94289.66
2023-10-06T06:37:02.022Z,94299.13
2023-10-06T06:42:09.587Z,94296.16
2023-10-06T06:47:13.739Z,94306.19
2023-10-06T06:52:17.012Z,94288.53
2023-10-06T06:57:21.704Z,94288.81
2023-10-06T07:02:24.914Z,94308.78
2023-10-06T07:07:28.608Z,94316.00
2023-10-06T07:12:31.770Z,94318.38
2023-10-06T07:17:35.155Z,94317.09
2023-10-06T07:22:38.670Z,94310.91
2023-10-06T07:27:42.626Z,94306.41
2023-10-06T07:32:47.980Z,94298.50
2023-10-06T07:37:52.718Z,94344.69
2023-10-06T07:43:00.457Z,94351.38
2023-10-06T07:48:09.084Z,94367.13
2023-10-06T07:53:12.603Z,94374.66
2023-10-06T07:58:20.450Z,94358.97
2023-10-06T08:03:24.161Z,94376.63
2023-10-06T08:08:30.254Z,94362.19
2023-10-06T08:13:35.319Z,94376.16
2023-10-06T08:18:41.733Z,94369.47
2023-10-06T08:23:45.780Z,94371.69
2023-10-06T08:28:50.765Z,94354.31
2023-10-06T08:33:54.664Z,94363.59
2023-10-06T08:38:59.237Z,94323.97
2023-10-06T08:44:04.831Z,94362.78
2023-10-06T08:49:09.917Z,94374.00
2023-10-06T08:54:16.146Z,94338.63
2023-10-06T08:59:21.764Z,94385.56
2023-10-06T09:04:36.258Z,94381.59
2023-10-06T09:09:44.909Z,94383.88
2023-10-06T09:14:55.971Z,94383.31
2023-10-06T09:20:01.022Z,94378.69
2023-10-06T09:25:07.678Z,94375.78
2023-10-06T09:30:18.372Z,94343.06
2023-10-06T09:35:23.496Z,94382.09
2023-10-06T09:40:33.580Z,94375.34
2023-10-06T09:45:38.830Z,94373.09
2023-10-06T09:50:47.853Z,94343.75
2023-10-06T09:55:52.460Z,94373.66
2023-10-06T10:00:57.212Z,94334.19
2023-10-06T10:06:05.768Z,94337.56
2023-10-06T10:11:16.035Z,94349.72
2023-10-06T10:16:38.261Z,94349.56
2023-10-06T10:21:46.112Z,94330.84
2023-10-06T10:26:54.100Z,94340.41
2023-10-06T10:32:17.972Z,94339.44
2023-10-06T10:37:26.112Z,94291.56
2023-10-06T10:42:42.451Z,94320.88
2023-10-06T10:47:48.038Z,94339.47
2023-10-06T10:52:55.203Z,94307.84
2023-10-06T10:57:59.440Z,94296.63
2023-10-06T11:03:05.892Z,94292.03
2023-10-06T11:08:09.190Z,94293.97
2023-10-06T11:13:20.022Z,94277.81
2023-10-06T11:18:24.601Z,94270.31
2023-10-06T11:23:43.398Z,94281.09
2023-10-06T11:28:47.390Z,94259.28
2023-10-06T11:33:51.651Z,94274.84
2023-10-06T11:38:55.849Z,94253.53
2023-10-06T11:44:01.537Z,94264.94
2023-10-06T11:49:13.441Z,94268.97
2023-10-06T11:54:17.203Z,94248.03
2023-10-06T11:59:24.314Z,94251.13
2023-10-06T12:04:31.948Z,94257.56
2023-10-06T12:09:35.799Z,94231.63
2023-10-06T12:14:39.902Z,94253.94
2023-10-06T12:19:43.973Z,94228.91
2023-10-06T12:24:48.141Z,94229.41
2023-10-06T12:29:56.774Z,94252.16
2023-10-06T12:35:01.522Z,94239.13
2023-10-06T12:40:06.119Z,94250.63
2023-10-06T12:45:19.801Z,94246.66
2023-10-06T12:50:25.414Z,94223.16
2023-10-06T12:55:30.476Z,94234.66
2023-10-06T13:00:34.126Z,94221.53
2023-10-06T13:05:38.051Z,94230.31
2023-10-06T13:10:41.826Z,94218.31
2023-10-06T13:15:49.855Z,94226.22
2023-10-06T13:20:54.064Z,94237.50
2023-10-06T13:25:59.827Z,94216.97
2023-10-06T13:31:06.069Z,94221.94
2023-10-06T13:36:11.652Z,94211.38
2023-10-06T13:41:16.259Z,94191.44
2023-10-06T13:46:21.898Z,94215.84
2023-10-06T13:51:27.996Z,94209.47
2023-10-06T13:56:33.472Z,94204.69
2023-10-06T14:01:38.002Z,94179.38
2023-10-06T14:06:45.475Z,94206.53
2023-10-06T14:11:48.929Z,94188.91
2023-10-06T14:16:55.837Z,94204.41
2023-10-06T14:21:59.510Z,94199.28
2023-10-06T14:27:03.122Z,94210.88
2023-10-06T14:32:19.931Z,94164.25
2023-10-06T14:37:40.412Z,94159.75
2023-10-06T14:43:02.523Z,94173.47
2023-10-06T14:48:06.649Z,94180.25
2023-10-06T14:53:12.003Z,94192.13
2023-10-06T14:58:16.083Z,94179.53
2023-10-06T15:03:20.303Z,94186.88
2023-10-06T15:08:24.669Z,94181.31
2023-10-06T15:13:28.668Z,94177.50
2023-10-06T15:18:32.663Z,94180.06
2023-10-06T15:23:36.236Z,94166.97
2023-10-06T15:28:40.504Z,94188.56
2023-10-06T15:33:45.534Z,94187.59
2023-10-06T15:38:49.865Z,94180.50
2023-10-06T15:43:53.379Z,94185.47
2023-10-06T15:49:00.325Z,94183.91
2023-10-06T15:54:07.329Z,94168.22
2023-10-06T15:59:16.370Z,94160.97
2023-10-06T16:04:21.219Z,94206.50
2023-10-06T16:09:25.360Z,94205.81
2023-10-06T16:14:29.880Z,94191.69
2023-10-06T16:19:36.094Z,94220.63
2023-10-06T16:24:39.898Z,94233.84
2023-10-06T16:29:44.025Z,94229.94
2023-10-06T16:34:48.091Z,94223.81
2023-10-06T16:39:53.063Z,94225.09
2023-10-06T16:44:57.868Z,94221.22
2023-10-06T16:50:01.125Z,94237.16
2023-10-06T16:55:07.580Z,94246.25
2023-10-06T17:00:11.578Z,94218.53
2023-10-06T17:05:16.229Z,94226.13
2023-10-06T17:10:19.925Z,94217.00
2023-10-06T17:15:23.455Z,94249.72
2023-10-06T17:20:27.013Z,94249.94
2023-10-06T17:25:30.788Z,94245.97
2023-10-06T17:30:37.680Z,94260.47
2023-10-06T17:35:42.394Z,94218.84
2023-10-06T17:40:46.372Z,94244.53
2023-10-06T17:45:49.917Z,94272.84
2023-10-06T17:50:53.689Z,94269.47
2023-10-06T17:55:57.785Z,94273.47
2023-10-06T18:01:01.046Z,94272.28
2023-10-06T18:06:07.201Z,94279.78
2023-10-06T18:11:10.459Z,94233.47
2023-10-06T18:16:13.597Z,94294.13
2023-10-06T18:21:18.996Z,94299.47
2023-10-06T18:26:21.998Z,94293.72
2023-10-06T18:31:26.639Z,94291.91
2023-10-06T18:36:32.165Z,94289.31
2023-10-06T18:41:35.895Z,94247.81
2023-10-06T18:46:40.713Z,94301.28
2023-10-06T18:51:44.035Z,94304.63
2023-10-06T18:56:48.560Z,94294.94
2023-10-06T19:01:52.394Z,94285.63
2023-10-06T19:06:56.127Z,94297.47
2023-10-06T19:12:00.060Z,94310.50
2023-10-06T19:17:04.326Z,94331.78
2023-10-06T19:22:07.500Z,94321.19
2023-10-06T19:27:12.659Z,94303.19
2023-10-06T19:32:15.856Z,94320.91
2023-10-06T19:37:21.238Z,94327.56
2023-10-06T19:42:25.077Z,94335.47
2023-10-06T19:47:28.909Z,94296.25
2023-10-06T19:52:33.169Z,94328.16
2023-10-06T19:57:37.384Z,94334.16
2023-10-06T20:02:44.058Z,94336.97
2023-10-06T20:07:47.877Z,94277.59
2023-10-06T20:12:52.335Z,94313.06
2023-10-06T20:17:56.972Z,94324.09
2023-10-06T20:23:01.825Z,94336.28
2023-10-06T20:28:06.652Z,94315.81
2023-10-06T20:33:10.472Z,94333.13
2023-10-06T20:38:13.734Z,94326.88
2023-10-06T20:43:17.004Z,94324.53
2023-10-06T20:48:20.764Z,94323.78
2023-10-06T20:53:24.665Z,94330.06
2023-10-06T20:58:28.172Z,94327.69
2023-10-06T21:03:31.313Z,94270.66
2023-10-06T21:08:37.143Z,94302.50
2023-10-06T21:13:41.876Z,94339.06
2023-10-06T21:18:44.999Z,94331.22
2023-10-06T21:23:48.484Z,94321.78
2023-10-06T21:28:54.450Z,94325.34
2023-10-06T21:33:58.227Z,94350.91
2023-10-06T21:39:02.584Z,94351.31
2023-10-06T21:44:06.847Z,94307.25
2023-10-06T21:49:10.270Z,94338.75
2023-10-06T21:54:13.476Z,94315.94
2023-10-06T21:59:17.066Z,94325.34
2023-10-06T22:04:20.137Z,94343.47
2023-10-06T22:09:23.529Z,94297.03
2023-10-06T22:14:32.825Z,94298.97
2023-10-06T22:19:36.961Z,94317.09
2023-10-06T22:24:40.239Z,94326.50
2023-10-06T22:29:44.933Z,94309.94
2023-10-06T22:34:48.587Z,94314.66
2023-10-06T22:39:51.758Z,94298.50
2023-10-06T22:44:54.929Z,94258.75
2023-10-06T22:49:59.342Z,94296.13
2023-10-06T22:55:04.512Z,94259.09
2023-10-06T23:00:11.694Z,94317.75
2023-10-06T23:05:18.883Z,94317.38
2023-10-06T23:10:27.840Z,94307.09
2023-10-06T23:15:33.272Z,94270.06
2023-10-06T23:20:43.437Z,94279.47
2023-10-06T23:25:51.110Z,94296.41
2023-10-06T23:30:54.324Z,94261.75
2023-10-06T23:35:59.528Z,94308.56
2023-10-06T23:41:08.842Z,94258.97
2023-10-06T23:46:19.381Z,94255.47
2023-10-06T23:51:22.992Z,94262.97
2023-10-06T23:56:32.576Z,94274.41
